Hauptseite
METAR-TAF:

METAR-TAF

Flughäfen :

Militärflugplatz Deelen

Arnheim, Niederlande

Breite: 52-04N, Länge: 005-53E, Höhe: 48 m

Beobachtung

Neuester Wetterbericht von vor 30 Minuten, um 12:55 UTC
Wind 10 kt aus West, variierte zwischen Süd/Südwest und Nord/Nordwest
Temperatur 26°C
Luftfeuchtigkeit 48%
Luftdruck 1014 hPa
Sichtweite 10 km oder mehr
Durchbrochene Bewölkung in der Höhe von 4500 ft
Durchbrochene Bewölkung in der Höhe von 5000 ft
Durchbrochene Bewölkung in der Höhe von 6300 ft

METAR: EHDL 171255Z AUTO 26010KT 210V330 9999 BKN045 BKN050 BKN063 26/14 Q1014 BLU

Zeit: 15:25 (13:25 UTC)


TAF: fehlend

Wetterbeobachtungen und Prognosen von mehr als 4000 Flughäfen (METAR und TAF Bericht).

Die verfügbaren Stationen werden durch gelbe und rote Markierungen auf der Karte dargestellt.

Führen Sie die Maus auf sie, um den Namen der Station zu sehen.

Darauf klicken, um die Beobachtung von Wetterbeobachtungen und Prognosen zu sehen.

Um die Karte zu ändern : klicken Sie auf den grünen Tasten mit einem schwarzen Kreuz Zum Vergrößern, auf den grünen Button mit einem Gedankenstrich zu verkleinern, oder auf die grünen Pfeile für benachbarte Karten.


METAR-TAF: